sensor_id;sensor_type;location;lat;lon;timestamp;pressure;altitude;pressure_sealevel;temperature;humidity
58955;BME280;45815;52.334;5.024;2024-03-08T00:02:17;101982.38;;;4.87;100.00
58955;BME280;45815;52.334;5.024;2024-03-08T00:04:42;101972.03;;;4.89;100.00
58955;BME280;45815;52.334;5.024;2024-03-08T00:07:08;101965.81;;;4.86;100.00
58955;BME280;45815;52.334;5.024;2024-03-08T00:09:33;101959.63;;;4.84;100.00
58955;BME280;45815;52.334;5.024;2024-03-08T00:11:59;101960.34;;;4.82;100.00
58955;BME280;45815;52.334;5.024;2024-03-08T00:14:24;101958.28;;;4.76;100.00
58955;BME280;45815;52.334;5.024;2024-03-08T00:16:50;101961.72;;;4.75;100.00
58955;BME280;45815;52.334;5.024;2024-03-08T00:19:15;101953.81;;;4.74;100.00
58955;BME280;45815;52.334;5.024;2024-03-08T00:21:41;101953.81;;;4.74;100.00
58955;BME280;45815;52.334;5.024;2024-03-08T00:24:07;101949.50;;;4.74;100.00
58955;BME280;45815;52.334;5.024;2024-03-08T00:26:32;101951.09;;;4.72;100.00
58955;BME280;45815;52.334;5.024;2024-03-08T00:28:58;101948.50;;;4.72;100.00
58955;BME280;45815;52.334;5.024;2024-03-08T00:31:23;101945.19;;;4.75;100.00
58955;BME280;45815;52.334;5.024;2024-03-08T00:33:49;101934.59;;;4.72;100.00
58955;BME280;45815;52.334;5.024;2024-03-08T00:36:14;101945.72;;;4.69;100.00
58955;BME280;45815;52.334;5.024;2024-03-08T00:38:39;101940.53;;;4.69;100.00
58955;BME280;45815;52.334;5.024;2024-03-08T00:41:05;101919.25;;;4.61;100.00
58955;BME280;45815;52.334;5.024;2024-03-08T00:43:30;101936.03;;;4.67;100.00
58955;BME280;45815;52.334;5.024;2024-03-08T00:45:56;101930.84;;;4.67;100.00
58955;BME280;45815;52.334;5.024;2024-03-08T00:48:23;101935.16;;;4.66;100.00
58955;BME280;45815;52.334;5.024;2024-03-08T00:50:48;101929.13;;;4.67;100.00
58955;BME280;45815;52.334;5.024;2024-03-08T00:53:13;101926.41;;;4.65;100.00
58955;BME280;45815;52.334;5.024;2024-03-08T00:55:39;101925.44;;;4.63;100.00
58955;BME280;45815;52.334;5.024;2024-03-08T00:58:05;101915.94;;;4.64;100.00
58955;BME280;45815;52.334;5.024;2024-03-08T01:00:30;101910.53;;;4.61;100.00
58955;BME280;45815;52.334;5.024;2024-03-08T01:02:55;101914.78;;;4.59;100.00
58955;BME280;45815;52.334;5.024;2024-03-08T01:05:21;101915.75;;;4.61;100.00
58955;BME280;45815;52.334;5.024;2024-03-08T01:07:48;101908.59;;;4.57;100.00
58955;BME280;45815;52.334;5.024;2024-03-08T01:10:15;101908.59;;;4.57;100.00
58955;BME280;45815;52.334;5.024;2024-03-08T01:12:40;101905.16;;;4.58;100.00
58955;BME280;45815;52.334;5.024;2024-03-08T01:15:09;101889.19;;;4.52;100.00
58955;BME280;45815;52.334;5.024;2024-03-08T01:17:34;101882.47;;;4.40;100.00
58955;BME280;45815;52.334;5.024;2024-03-08T01:20:00;101896.91;;;4.50;100.00
58955;BME280;45815;52.334;5.024;2024-03-08T01:22:25;101884.63;;;4.48;100.00
58955;BME280;45815;52.334;5.024;2024-03-08T01:24:50;101890.72;;;4.48;100.00
58955;BME280;45815;52.334;5.024;2024-03-08T01:27:16;101889.63;;;4.44;100.00
58955;BME280;45815;52.334;5.024;2024-03-08T01:29:41;101878.25;;;4.42;100.00
58955;BME280;45815;52.334;5.024;2024-03-08T01:32:07;101871.25;;;4.41;100.00
58955;BME280;45815;52.334;5.024;2024-03-08T01:34:33;101859.97;;;4.41;100.00
58955;BME280;45815;52.334;5.024;2024-03-08T01:36:58;101867.66;;;4.39;100.00
58955;BME280;45815;52.334;5.024;2024-03-08T01:39:24;101860.47;;;4.35;100.00
58955;BME280;45815;52.334;5.024;2024-03-08T01:41:50;101864.00;;;4.36;100.00
58955;BME280;45815;52.334;5.024;2024-03-08T01:44:15;101860.47;;;4.35;100.00
58955;BME280;45815;52.334;5.024;2024-03-08T01:46:46;101851.72;;;4.33;100.00
58955;BME280;45815;52.334;5.024;2024-03-08T01:49:12;101849.00;;;4.32;100.00
58955;BME280;45815;52.334;5.024;2024-03-08T01:51:38;101821.19;;;4.16;100.00
58955;BME280;45815;52.334;5.024;2024-03-08T01:54:06;101842.72;;;4.28;100.00
58955;BME280;45815;52.334;5.024;2024-03-08T01:56:32;101841.75;;;4.26;100.00
58955;BME280;45815;52.334;5.024;2024-03-08T01:58:59;101842.53;;;4.25;100.00
58955;BME280;45815;52.334;5.024;2024-03-08T02:01:24;101833.75;;;4.23;100.00
58955;BME280;45815;52.334;5.024;2024-03-08T02:03:50;101836.28;;;4.21;100.00
58955;BME280;45815;52.334;5.024;2024-03-08T02:06:16;101837.88;;;4.19;100.00
58955;BME280;45815;52.334;5.024;2024-03-08T02:08:42;101830.97;;;4.20;100.00
58955;BME280;45815;52.334;5.024;2024-03-08T02:11:09;101829.09;;;4.17;100.00
58955;BME280;45815;52.334;5.024;2024-03-08T02:13:35;101830.69;;;4.15;100.00
58955;BME280;45815;52.334;5.024;2024-03-08T02:16:00;101816.84;;;4.01;100.00
58955;BME280;45815;52.334;5.024;2024-03-08T02:18:27;101828.41;;;4.07;100.00
58955;BME280;45815;52.334;5.024;2024-03-08T02:20:56;101827.25;;;4.01;100.00
58955;BME280;45815;52.334;5.024;2024-03-08T02:23:23;101817.69;;;4.00;100.00
58955;BME280;45815;52.334;5.024;2024-03-08T02:25:51;101811.50;;;3.98;100.00
58955;BME280;45815;52.334;5.024;2024-03-08T02:28:18;101808.69;;;3.95;100.00
58955;BME280;45815;52.334;5.024;2024-03-08T02:30:45;101809.50;;;3.94;100.00
58955;BME280;45815;52.334;5.024;2024-03-08T02:33:13;101797.13;;;3.90;100.00
58955;BME280;45815;52.334;5.024;2024-03-08T02:35:42;101802.53;;;3.93;100.00
58955;BME280;45815;52.334;5.024;2024-03-08T02:38:07;101798.94;;;3.91;100.00
58955;BME280;45815;52.334;5.024;2024-03-08T02:40:33;101799.00;;;3.93;100.00
58955;BME280;45815;52.334;5.024;2024-03-08T02:42:58;101798.94;;;3.91;100.00
58955;BME280;45815;52.334;5.024;2024-03-08T02:45:24;101795.41;;;3.91;100.00
58955;BME280;45815;52.334;5.024;2024-03-08T02:47:49;101794.34;;;3.87;100.00
58955;BME280;45815;52.334;5.024;2024-03-08T02:50:15;101789.94;;;3.86;100.00
58955;BME280;45815;52.334;5.024;2024-03-08T02:52:44;101795.13;;;3.86;100.00
58955;BME280;45815;52.334;5.024;2024-03-08T02:55:11;101771.28;;;3.78;100.00
58955;BME280;45815;52.334;5.024;2024-03-08T02:57:40;101782.06;;;3.85;100.00
58955;BME280;45815;52.334;5.024;2024-03-08T03:00:07;101782.97;;;3.85;100.00
58955;BME280;45815;52.334;5.024;2024-03-08T03:02:34;101774.88;;;3.80;100.00
58955;BME280;45815;52.334;5.024;2024-03-08T03:05:00;101777.59;;;3.82;100.00
58955;BME280;45815;52.334;5.024;2024-03-08T03:07:30;101767.69;;;3.76;100.00
58955;BME280;45815;52.334;5.024;2024-03-08T03:09:55;101767.63;;;3.75;100.00
58955;BME280;45815;52.334;5.024;2024-03-08T03:12:21;101761.44;;;3.73;100.00
58955;BME280;45815;52.334;5.024;2024-03-08T03:14:46;101762.88;;;3.68;100.00
58955;BME280;45815;52.334;5.024;2024-03-08T03:17:12;101759.44;;;3.69;100.00
58955;BME280;45815;52.334;5.024;2024-03-08T03:19:40;101756.69;;;3.66;100.00
58955;BME280;45815;52.334;5.024;2024-03-08T03:22:06;101751.28;;;3.63;100.00
58955;BME280;45815;52.334;5.024;2024-03-08T03:24:32;101750.50;;;3.64;100.00
58955;BME280;45815;52.334;5.024;2024-03-08T03:26:58;101753.88;;;3.63;100.00
58955;BME280;45815;52.334;5.024;2024-03-08T03:29:24;101737.94;;;3.56;100.00
58955;BME280;45815;52.334;5.024;2024-03-08T03:31:50;101743.31;;;3.59;100.00
58955;BME280;45815;52.334;5.024;2024-03-08T03:34:16;101740.53;;;3.56;100.00
58955;BME280;45815;52.334;5.024;2024-03-08T03:36:41;101747.44;;;3.56;100.00
58955;BME280;45815;52.334;5.024;2024-03-08T03:39:11;101736.75;;;3.51;100.00
58955;BME280;45815;52.334;5.024;2024-03-08T03:41:41;101739.34;;;3.51;100.00
58955;BME280;45815;52.334;5.024;2024-03-08T03:44:06;101733.78;;;3.45;100.00
58955;BME280;45815;52.334;5.024;2024-03-08T03:46:33;101734.94;;;3.50;100.00
58955;BME280;45815;52.334;5.024;2024-03-08T03:48:58;101733.16;;;3.49;100.00
58955;BME280;45815;52.334;5.024;2024-03-08T03:51:24;101727.97;;;3.49;100.00
58955;BME280;45815;52.334;5.024;2024-03-08T03:53:49;101728.75;;;3.48;100.00
58955;BME280;45815;52.334;5.024;2024-03-08T03:56:15;101723.38;;;3.45;100.00
58955;BME280;45815;52.334;5.024;2024-03-08T03:58:40;101723.94;;;3.40;100.00
58955;BME280;45815;52.334;5.024;2024-03-08T04:01:06;101723.94;;;3.40;100.00
58955;BME280;45815;52.334;5.024;2024-03-08T04:03:31;101720.34;;;3.37;100.00
58955;BME280;45815;52.334;5.024;2024-03-08T04:05:57;101723.94;;;3.40;100.00
58955;BME280;45815;52.334;5.024;2024-03-08T04:08:22;101720.34;;;3.37;100.00
58955;BME280;45815;52.334;5.024;2024-03-08T04:10:50;101717.63;;;3.36;100.00
58955;BME280;45815;52.334;5.024;2024-03-08T04:13:16;101717.44;;;3.33;100.00
58955;BME280;45815;52.334;5.024;2024-03-08T04:15:41;101712.03;;;3.30;100.00
58955;BME280;45815;52.334;5.024;2024-03-08T04:18:09;101716.34;;;3.29;100.00
58955;BME280;45815;52.334;5.024;2024-03-08T04:20:35;101699.31;;;3.20;100.00
58955;BME280;45815;52.334;5.024;2024-03-08T04:23:01;101710.69;;;3.22;100.00
58955;BME280;45815;52.334;5.024;2024-03-08T04:25:27;101709.88;;;3.23;100.00
58955;BME280;45815;52.334;5.024;2024-03-08T04:27:52;101710.78;;;3.23;100.00
58955;BME280;45815;52.334;5.024;2024-03-08T04:30:18;101709.09;;;3.24;100.00
58955;BME280;45815;52.334;5.024;2024-03-08T04:32:43;101703.78;;;3.22;100.00
58955;BME280;45815;52.334;5.024;2024-03-08T04:35:09;101700.03;;;3.17;100.00
58955;BME280;45815;52.334;5.024;2024-03-08T04:37:34;101697.31;;;3.15;100.00
58955;BME280;45815;52.334;5.024;2024-03-08T04:40:00;101701.72;;;3.16;100.00
58955;BME280;45815;52.334;5.024;2024-03-08T04:42:26;101698.91;;;3.13;100.00
58955;BME280;45815;52.334;5.024;2024-03-08T04:44:54;101700.34;;;3.08;100.00
58955;BME280;45815;52.334;5.024;2024-03-08T04:47:19;101700.16;;;3.05;100.00
58955;BME280;45815;52.334;5.024;2024-03-08T04:49:45;101688.97;;;3.06;100.00
58955;BME280;45815;52.334;5.024;2024-03-08T04:52:12;101695.97;;;3.07;100.00
58955;BME280;45815;52.334;5.024;2024-03-08T04:54:37;101688.19;;;3.07;100.00
58955;BME280;45815;52.334;5.024;2024-03-08T04:57:02;101686.38;;;3.06;100.00
58955;BME280;45815;52.334;5.024;2024-03-08T04:59:30;101688.19;;;3.07;100.00
58955;BME280;45815;52.334;5.024;2024-03-08T05:01:55;101683.88;;;3.08;100.00
58955;BME280;45815;52.334;5.024;2024-03-08T05:04:21;101682.00;;;3.05;100.00
58955;BME280;45815;52.334;5.024;2024-03-08T05:06:47;101685.38;;;3.04;100.00
58955;BME280;45815;52.334;5.024;2024-03-08T05:09:13;101680.09;;;3.03;100.00
58955;BME280;45815;52.334;5.024;2024-03-08T05:11:45;101687.78;;;3.01;100.00
58955;BME280;45815;52.334;5.024;2024-03-08T05:14:11;101671.84;;;2.95;100.00
58955;BME280;45815;52.334;5.024;2024-03-08T05:16:46;101682.78;;;3.04;100.00
58955;BME280;45815;52.334;5.024;2024-03-08T05:19:15;101682.78;;;3.04;100.00
58955;BME280;45815;52.334;5.024;2024-03-08T05:21:44;101678.50;;;3.05;100.00
58955;BME280;45815;52.334;5.024;2024-03-08T05:24:10;101673.31;;;3.05;100.00
58955;BME280;45815;52.334;5.024;2024-03-08T05:26:36;101670.44;;;3.00;100.00
58955;BME280;45815;52.334;5.024;2024-03-08T05:29:02;101679.41;;;3.05;100.00
58955;BME280;45815;52.334;5.024;2024-03-08T05:31:29;101667.31;;;3.06;100.00
58955;BME280;45815;52.334;5.024;2024-03-08T05:33:56;101675.00;;;3.04;100.00
58955;BME280;45815;52.334;5.024;2024-03-08T05:36:22;101667.75;;;2.99;100.00
58955;BME280;45815;52.334;5.024;2024-03-08T05:38:47;101668.63;;;2.99;100.00
58955;BME280;45815;52.334;5.024;2024-03-08T05:41:16;101672.03;;;2.98;100.00
58955;BME280;45815;52.334;5.024;2024-03-08T05:43:41;101669.34;;;2.96;100.00
58955;BME280;45815;52.334;5.024;2024-03-08T05:46:07;101667.56;;;2.95;100.00
58955;BME280;45815;52.334;5.024;2024-03-08T05:48:32;101654.78;;;2.85;100.00
58955;BME280;45815;52.334;5.024;2024-03-08T05:51:00;101655.91;;;2.89;100.00
58955;BME280;45815;52.334;5.024;2024-03-08T05:53:25;101665.56;;;2.91;100.00
58955;BME280;45815;52.334;5.024;2024-03-08T05:55:52;101663.84;;;2.92;100.00
58955;BME280;45815;52.334;5.024;2024-03-08T05:58:17;101660.38;;;2.91;100.00
58955;BME280;45815;52.334;5.024;2024-03-08T06:00:42;101663.09;;;2.93;100.00
58955;BME280;45815;52.334;5.024;2024-03-08T06:03:08;101661.25;;;2.92;100.00
58955;BME280;45815;52.334;5.024;2024-03-08T06:05:33;101660.38;;;2.91;100.00
58955;BME280;45815;52.334;5.024;2024-03-08T06:07:59;101661.25;;;2.92;100.00
58955;BME280;45815;52.334;5.024;2024-03-08T06:10:24;101657.06;;;2.94;100.00
58955;BME280;45815;52.334;5.024;2024-03-08T06:12:49;101658.06;;;2.96;100.00
58955;BME280;45815;52.334;5.024;2024-03-08T06:15:16;101652.06;;;2.97;100.00
58955;BME280;45815;52.334;5.024;2024-03-08T06:17:42;101653.00;;;2.98;100.00
58955;BME280;45815;52.334;5.024;2024-03-08T06:20:08;101651.28;;;2.98;100.00
58955;BME280;45815;52.334;5.024;2024-03-08T06:22:37;101644.28;;;2.97;100.00
58955;BME280;45815;52.334;5.024;2024-03-08T06:25:06;101648.88;;;3.01;100.00
58955;BME280;45815;52.334;5.024;2024-03-08T06:27:32;101647.19;;;3.02;100.00
58955;BME280;45815;52.334;5.024;2024-03-08T06:29:59;101647.88;;;2.99;100.00
58955;BME280;45815;52.334;5.024;2024-03-08T06:32:25;101649.69;;;3.00;100.00
58955;BME280;45815;52.334;5.024;2024-03-08T06:34:50;101642.69;;;2.99;100.00
58955;BME280;45815;52.334;5.024;2024-03-08T06:37:16;101647.88;;;2.99;100.00
58955;BME280;45815;52.334;5.024;2024-03-08T06:39:48;101650.59;;;3.01;100.00
58955;BME280;45815;52.334;5.024;2024-03-08T06:42:13;101645.50;;;3.02;100.00
58955;BME280;45815;52.334;5.024;2024-03-08T06:44:39;101646.47;;;3.04;100.00
58955;BME280;45815;52.334;5.024;2024-03-08T06:47:10;101640.34;;;2.89;100.00
58955;BME280;45815;52.334;5.024;2024-03-08T06:49:36;101646.47;;;3.04;100.00
58955;BME280;45815;52.334;5.024;2024-03-08T06:52:01;101645.88;;;3.08;100.00
58955;BME280;45815;52.334;5.024;2024-03-08T06:54:26;101641.84;;;3.13;100.00
58955;BME280;45815;52.334;5.024;2024-03-08T06:56:52;101640.47;;;3.19;100.00
58955;BME280;45815;52.334;5.024;2024-03-08T06:59:17;101644.31;;;3.25;100.00
58955;BME280;45815;52.334;5.024;2024-03-08T07:01:43;101640.09;;;3.27;100.00
58955;BME280;45815;52.334;5.024;2024-03-08T07:04:08;101647.28;;;3.31;100.00
58955;BME280;45815;52.334;5.024;2024-03-08T07:06:34;101639.78;;;3.36;100.00
58955;BME280;45815;52.334;5.024;2024-03-08T07:08:59;101641.06;;;3.43;100.00
58955;BME280;45815;52.334;5.024;2024-03-08T07:11:25;101636.03;;;3.46;100.00
58955;BME280;45815;52.334;5.024;2024-03-08T07:13:50;101636.31;;;3.50;100.00
58955;BME280;45815;52.334;5.024;2024-03-08T07:16:16;101630.53;;;3.54;100.00
58955;BME280;45815;52.334;5.024;2024-03-08T07:18:41;101634.09;;;3.56;100.00
58955;BME280;45815;52.334;5.024;2024-03-08T07:21:09;101621.31;;;3.59;100.00
58955;BME280;45815;52.334;5.024;2024-03-08T07:23:36;101626.59;;;3.61;100.00
58955;BME280;45815;52.334;5.024;2024-03-08T07:26:20;101618.16;;;3.65;100.00
58955;BME280;45815;52.334;5.024;2024-03-08T07:28:45;101617.66;;;3.71;100.00
58955;BME280;45815;52.334;5.024;2024-03-08T07:31:11;101612.28;;;3.68;100.00
58955;BME280;45815;52.334;5.024;2024-03-08T07:33:51;101607.09;;;3.68;100.00
58955;BME280;45815;52.334;5.024;2024-03-08T07:36:21;101612.44;;;3.86;100.00
58955;BME280;45815;52.334;5.024;2024-03-08T07:38:47;101606.75;;;3.91;100.00
58955;BME280;45815;52.334;5.024;2024-03-08T07:41:13;101592.56;;;3.86;100.00
58955;BME280;45815;52.334;5.024;2024-03-08T07:43:38;101596.88;;;4.00;100.00
58955;BME280;45815;52.334;5.024;2024-03-08T07:46:04;101604.03;;;4.05;100.00
58955;BME280;45815;52.334;5.024;2024-03-08T07:48:29;101599.34;;;4.14;100.00
58955;BME280;45815;52.334;5.024;2024-03-08T07:50:56;101583.97;;;4.17;100.00
58955;BME280;45815;52.334;5.024;2024-03-08T07:53:22;101582.50;;;4.22;100.00
58955;BME280;45815;52.334;5.024;2024-03-08T07:55:49;101586.63;;;4.33;100.00
58955;BME280;45815;52.334;5.024;2024-03-08T07:58:15;101578.88;;;4.35;100.00
58955;BME280;45815;52.334;5.024;2024-03-08T08:00:40;101576.38;;;4.36;100.00
58955;BME280;45815;52.334;5.024;2024-03-08T08:03:08;101582.56;;;4.38;100.00
58955;BME280;45815;52.334;5.024;2024-03-08T08:05:34;101575.91;;;4.43;100.00
58955;BME280;45815;52.334;5.024;2024-03-08T08:08:01;101574.34;;;4.47;100.00
58955;BME280;45815;52.334;5.024;2024-03-08T08:10:29;101577.22;;;4.52;100.00
58955;BME280;45815;52.334;5.024;2024-03-08T08:12:54;101581.00;;;4.57;100.00
58955;BME280;45815;52.334;5.024;2024-03-08T08:15:22;101573.34;;;4.60;100.00
58955;BME280;45815;52.334;5.024;2024-03-08T08:17:48;101576.34;;;4.68;100.00
58955;BME280;45815;52.334;5.024;2024-03-08T08:20:13;101561.41;;;4.63;100.00
58955;BME280;45815;52.334;5.024;2024-03-08T08:22:42;101565.41;;;4.73;100.00
58955;BME280;45815;52.334;5.024;2024-03-08T08:25:10;101569.00;;;4.75;100.00
58955;BME280;45815;52.334;5.024;2024-03-08T08:27:45;101553.94;;;4.86;100.00
58955;BME280;45815;52.334;5.024;2024-03-08T08:30:11;101552.72;;;4.96;100.00
58955;BME280;45815;52.334;5.024;2024-03-08T08:32:40;101555.81;;;5.05;100.00
58955;BME280;45815;52.334;5.024;2024-03-08T08:35:07;101542.16;;;5.09;100.00
58955;BME280;45815;52.334;5.024;2024-03-08T08:37:35;101548.97;;;5.23;100.00
58955;BME280;45815;52.334;5.024;2024-03-08T08:40:03;101554.44;;;5.28;100.00
58955;BME280;45815;52.334;5.024;2024-03-08T08:42:34;101559.13;;;5.35;100.00
58955;BME280;45815;52.334;5.024;2024-03-08T08:44:59;101545.09;;;5.49;100.00
58955;BME280;45815;52.334;5.024;2024-03-08T08:47:24;101544.03;;;5.62;100.00
58955;BME280;45815;52.334;5.024;2024-03-08T08:49:50;101529.53;;;5.67;100.00
58955;BME280;45815;52.334;5.024;2024-03-08T08:52:16;101524.34;;;5.85;100.00
58955;BME280;45815;52.334;5.024;2024-03-08T08:54:42;101515.69;;;5.86;100.00
58955;BME280;45815;52.334;5.024;2024-03-08T08:57:08;101527.13;;;6.06;100.00
58955;BME280;45815;52.334;5.024;2024-03-08T08:59:34;101521.53;;;6.17;100.00
58955;BME280;45815;52.334;5.024;2024-03-08T09:02:01;101518.81;;;6.33;100.00
58955;BME280;45815;52.334;5.024;2024-03-08T09:04:29;101516.44;;;6.38;100.00
58955;BME280;45815;52.334;5.024;2024-03-08T09:06:54;101517.75;;;6.47;100.00
58955;BME280;45815;52.334;5.024;2024-03-08T09:09:20;101516.97;;;6.68;100.00
58955;BME280;45815;52.334;5.024;2024-03-08T09:11:47;101503.72;;;6.63;100.00
58955;BME280;45815;52.334;5.024;2024-03-08T09:14:12;101517.38;;;6.96;100.00
58955;BME280;45815;52.334;5.024;2024-03-08T09:16:38;101506.44;;;7.25;100.00
58955;BME280;45815;52.334;5.024;2024-03-08T09:19:03;101496.38;;;7.55;100.00
58955;BME280;45815;52.334;5.024;2024-03-08T09:21:29;101493.97;;;7.80;100.00
58955;BME280;45815;52.334;5.024;2024-03-08T09:23:55;101496.94;;;7.90;100.00
58955;BME280;45815;52.334;5.024;2024-03-08T09:26:20;101499.69;;;7.93;100.00
58955;BME280;45815;52.334;5.024;2024-03-08T09:28:47;101493.88;;;8.22;100.00
58955;BME280;45815;52.334;5.024;2024-03-08T09:31:12;101488.13;;;8.31;100.00
58955;BME280;45815;52.334;5.024;2024-03-08T09:33:38;101486.13;;;8.47;100.00
58955;BME280;45815;52.334;5.024;2024-03-08T09:36:06;101481.34;;;8.59;100.00
58955;BME280;45815;52.334;5.024;2024-03-08T09:38:33;101465.25;;;8.48;100.00
58955;BME280;45815;52.334;5.024;2024-03-08T09:41:00;101469.72;;;8.51;100.00
58955;BME280;45815;52.334;5.024;2024-03-08T09:43:27;101468.09;;;8.54;100.00
58955;BME280;45815;52.334;5.024;2024-03-08T09:45:54;101461.88;;;8.75;100.00
58955;BME280;45815;52.334;5.024;2024-03-08T09:48:21;101450.84;;;8.83;100.00
58955;BME280;45815;52.334;5.024;2024-03-08T09:50:47;101445.09;;;8.94;100.00
58955;BME280;45815;52.334;5.024;2024-03-08T09:53:13;101439.28;;;9.02;100.00
58955;BME280;45815;52.334;5.024;2024-03-08T09:55:39;101441.69;;;9.22;100.00
58955;BME280;45815;52.334;5.024;2024-03-08T09:58:14;101430.56;;;9.27;100.00
58955;BME280;45815;52.334;5.024;2024-03-08T10:00:58;101423.25;;;9.44;100.00
58955;BME280;45815;52.334;5.024;2024-03-08T10:03:24;101429.38;;;9.45;100.00
58955;BME280;45815;52.334;5.024;2024-03-08T10:05:52;101424.22;;;9.48;100.00
58955;BME280;45815;52.334;5.024;2024-03-08T10:08:19;101423.72;;;9.58;100.00
58955;BME280;45815;52.334;5.024;2024-03-08T10:10:45;101424.66;;;9.60;100.00
58955;BME280;45815;52.334;5.024;2024-03-08T10:13:11;101414.97;;;9.58;100.00
58955;BME280;45815;52.334;5.024;2024-03-08T10:15:41;101416.16;;;9.69;100.00
58955;BME280;45815;52.334;5.024;2024-03-08T10:18:07;101412.66;;;9.68;100.00
58955;BME280;45815;52.334;5.024;2024-03-08T10:20:32;101411.47;;;9.86;100.00
58955;BME280;45815;52.334;5.024;2024-03-08T10:23:02;101404.50;;;9.86;100.00
58955;BME280;45815;52.334;5.024;2024-03-08T10:25:31;101403.13;;;9.99;100.00
58955;BME280;45815;52.334;5.024;2024-03-08T10:27:57;101380.91;;;9.86;100.00
58955;BME280;45815;52.334;5.024;2024-03-08T10:30:23;101379.38;;;9.94;100.00
58955;BME280;45815;52.334;5.024;2024-03-08T10:32:48;101381.81;;;10.17;100.00
58955;BME280;45815;52.334;5.024;2024-03-08T10:35:14;101381.31;;;10.29;100.00
58955;BME280;45815;52.334;5.024;2024-03-08T10:37:49;101372.47;;;10.27;100.00
58955;BME280;45815;52.334;5.024;2024-03-08T10:40:24;101378.34;;;10.18;100.00
58955;BME280;45815;52.334;5.024;2024-03-08T10:42:52;101354.84;;;10.23;100.00
58955;BME280;45815;52.334;5.024;2024-03-08T10:45:34;101365.09;;;10.44;100.00
58955;BME280;45815;52.334;5.024;2024-03-08T10:50:29;101350.28;;;10.44;100.00
58955;BME280;45815;52.334;5.024;2024-03-08T10:53:00;101346.59;;;10.39;100.00
58955;BME280;45815;52.334;5.024;2024-03-08T10:55:27;101332.09;;;10.52;100.00
58955;BME280;45815;52.334;5.024;2024-03-08T10:57:53;101336.22;;;10.75;100.00
58955;BME280;45815;52.334;5.024;2024-03-08T11:00:20;101324.75;;;11.07;100.00
58955;BME280;45815;52.334;5.024;2024-03-08T11:02:52;101323.41;;;11.23;100.00
58955;BME280;45815;52.334;5.024;2024-03-08T11:05:38;101317.63;;;11.01;100.00
58955;BME280;45815;52.334;5.024;2024-03-08T11:08:18;101317.03;;;11.13;100.00
58955;BME280;45815;52.334;5.024;2024-03-08T11:10:50;101312.94;;;10.89;100.00
58955;BME280;45815;52.334;5.024;2024-03-08T11:13:41;101316.22;;;11.15;100.00
58955;BME280;45815;52.334;5.024;2024-03-08T11:16:14;101303.47;;;11.32;100.00
58955;BME280;45815;52.334;5.024;2024-03-08T11:19:06;101300.28;;;11.46;100.00
58955;BME280;45815;52.334;5.024;2024-03-08T11:21:36;101293.63;;;11.61;100.00
58955;BME280;45815;52.334;5.024;2024-03-08T11:24:11;101278.78;;;11.65;100.00
58955;BME280;45815;52.334;5.024;2024-03-08T11:26:37;101278.31;;;11.83;100.00
58955;BME280;45815;52.334;5.024;2024-03-08T11:32:08;101272.00;;;12.16;100.00
58955;BME280;45815;52.334;5.024;2024-03-08T11:34:35;101264.63;;;12.43;100.00
58955;BME280;45815;52.334;5.024;2024-03-08T11:37:03;101259.72;;;12.65;100.00
58955;BME280;45815;52.334;5.024;2024-03-08T11:39:29;101250.38;;;12.84;100.00
58955;BME280;45815;52.334;5.024;2024-03-08T11:41:56;101253.38;;;13.07;100.00
58955;BME280;45815;52.334;5.024;2024-03-08T11:44:21;101240.16;;;13.05;100.00
58955;BME280;45815;52.334;5.024;2024-03-08T11:46:47;101237.78;;;13.22;100.00
58955;BME280;45815;52.334;5.024;2024-03-08T11:49:13;101237.03;;;13.29;100.00
58955;BME280;45815;52.334;5.024;2024-03-08T11:51:39;101223.13;;;13.40;100.00
58955;BME280;45815;52.334;5.024;2024-03-08T11:54:06;101231.06;;;13.43;100.00
58955;BME280;45815;52.334;5.024;2024-03-08T11:56:32;101219.69;;;13.45;100.00
58955;BME280;45815;52.334;5.024;2024-03-08T11:58:58;101218.97;;;13.57;100.00
58955;BME280;45815;52.334;5.024;2024-03-08T12:01:23;101207.72;;;13.73;100.00
58955;BME280;45815;52.334;5.024;2024-03-08T12:03:53;101191.88;;;13.70;100.00
58955;BME280;45815;52.334;5.024;2024-03-08T12:06:19;101205.38;;;13.98;100.00
58955;BME280;45815;52.334;5.024;2024-03-08T12:08:46;101196.59;;;14.01;100.00
58955;BME280;45815;52.334;5.024;2024-03-08T12:11:14;101180.06;;;14.17;100.00
58955;BME280;45815;52.334;5.024;2024-03-08T12:13:41;101179.34;;;14.36;100.00
58955;BME280;45815;52.334;5.024;2024-03-08T12:16:06;101172.34;;;14.42;100.00
58955;BME280;45815;52.334;5.024;2024-03-08T12:18:35;101160.19;;;14.54;100.00
58955;BME280;45815;52.334;5.024;2024-03-08T12:21:10;101158.31;;;14.47;100.00
58955;BME280;45815;52.334;5.024;2024-03-08T12:23:38;101152.38;;;14.73;100.00
58955;BME280;45815;52.334;5.024;2024-03-08T12:26:14;101152.47;;;14.85;100.00
58955;BME280;45815;52.334;5.024;2024-03-08T12:28:41;101141.88;;;14.84;100.00
58955;BME280;45815;52.334;5.024;2024-03-08T12:31:08;101141.91;;;14.90;100.00
58955;BME280;45815;52.334;5.024;2024-03-08T12:33:52;101135.88;;;15.17;100.00
58955;BME280;45815;52.334;5.024;2024-03-08T12:36:19;101136.81;;;15.22;100.00
58955;BME280;45815;52.334;5.024;2024-03-08T12:38:48;101125.41;;;15.37;100.00
58955;BME280;45815;52.334;5.024;2024-03-08T12:41:14;101127.34;;;15.73;100.00
58955;BME280;45815;52.334;5.024;2024-03-08T12:43:40;101123.78;;;15.74;100.00
58955;BME280;45815;52.334;5.024;2024-03-08T12:46:06;101116.78;;;15.98;99.16
58955;BME280;45815;52.334;5.024;2024-03-08T12:48:34;101115.00;;;16.38;94.76
58955;BME280;45815;52.334;5.024;2024-03-08T12:51:01;101101.72;;;16.83;93.83
58955;BME280;45815;52.334;5.024;2024-03-08T12:53:26;101102.59;;;17.00;91.39